sensor_id;sensor_type;location;lat;lon;timestamp;temperature;humidity
56428;DHT22;42331;53.578;9.760;2023-03-01T00:00:39;-0.70;99.90
56428;DHT22;42331;53.578;9.760;2023-03-01T00:03:10;-0.70;99.90
56428;DHT22;42331;53.578;9.760;2023-03-01T00:05:45;-0.70;99.90
56428;DHT22;42331;53.578;9.760;2023-03-01T00:08:16;-0.70;99.90
56428;DHT22;42331;53.578;9.760;2023-03-01T00:10:47;-0.70;99.90
56428;DHT22;42331;53.578;9.760;2023-03-01T00:13:18;-0.70;99.90
56428;DHT22;42331;53.578;9.760;2023-03-01T00:15:48;-0.70;99.90
56428;DHT22;42331;53.578;9.760;2023-03-01T00:18:19;-0.80;99.90
56428;DHT22;42331;53.578;9.760;2023-03-01T00:20:54;-0.80;99.90
56428;DHT22;42331;53.578;9.760;2023-03-01T00:23:25;-0.80;99.90
56428;DHT22;42331;53.578;9.760;2023-03-01T00:25:57;-0.80;99.90
56428;DHT22;42331;53.578;9.760;2023-03-01T00:28:28;-0.80;99.90
56428;DHT22;42331;53.578;9.760;2023-03-01T00:31:07;-0.80;99.90
56428;DHT22;42331;53.578;9.760;2023-03-01T00:33:38;-0.70;99.90
56428;DHT22;42331;53.578;9.760;2023-03-01T00:36:10;-0.70;99.90
56428;DHT22;42331;53.578;9.760;2023-03-01T00:38:44;-0.80;99.90
56428;DHT22;42331;53.578;9.760;2023-03-01T00:41:17;-0.80;99.90
56428;DHT22;42331;53.578;9.760;2023-03-01T00:43:49;-0.90;99.90
56428;DHT22;42331;53.578;9.760;2023-03-01T00:46:23;-0.90;99.90
56428;DHT22;42331;53.578;9.760;2023-03-01T00:48:54;-0.90;99.90
56428;DHT22;42331;53.578;9.760;2023-03-01T00:51:26;-0.90;99.90
56428;DHT22;42331;53.578;9.760;2023-03-01T00:54:00;-0.90;99.90
56428;DHT22;42331;53.578;9.760;2023-03-01T00:56:31;-0.90;99.90
56428;DHT22;42331;53.578;9.760;2023-03-01T00:59:02;-1.00;99.90
56428;DHT22;42331;53.578;9.760;2023-03-01T01:01:33;-1.00;99.90
56428;DHT22;42331;53.578;9.760;2023-03-01T01:04:09;-1.00;99.90
56428;DHT22;42331;53.578;9.760;2023-03-01T01:06:45;-1.00;99.90
56428;DHT22;42331;53.578;9.760;2023-03-01T01:09:17;-1.00;99.90
56428;DHT22;42331;53.578;9.760;2023-03-01T01:11:50;-1.00;99.90
56428;DHT22;42331;53.578;9.760;2023-03-01T01:14:21;-1.00;99.90
56428;DHT22;42331;53.578;9.760;2023-03-01T01:16:52;-1.00;99.90
56428;DHT22;42331;53.578;9.760;2023-03-01T01:19:24;-1.10;99.90
56428;DHT22;42331;53.578;9.760;2023-03-01T01:21:55;-1.00;99.90
56428;DHT22;42331;53.578;9.760;2023-03-01T01:26:57;-1.00;99.90
56428;DHT22;42331;53.578;9.760;2023-03-01T01:29:28;-1.10;99.90
56428;DHT22;42331;53.578;9.760;2023-03-01T01:31:58;-1.00;99.90
56428;DHT22;42331;53.578;9.760;2023-03-01T01:34:29;-1.10;99.90
56428;DHT22;42331;53.578;9.760;2023-03-01T01:37:00;-1.10;99.90
56428;DHT22;42331;53.578;9.760;2023-03-01T01:39:34;-1.10;99.90
56428;DHT22;42331;53.578;9.760;2023-03-01T01:42:05;-1.10;99.90
56428;DHT22;42331;53.578;9.760;2023-03-01T01:44:36;-1.10;99.90
56428;DHT22;42331;53.578;9.760;2023-03-01T01:49:46;-1.10;99.90
56428;DHT22;42331;53.578;9.760;2023-03-01T01:52:25;-1.20;99.90
56428;DHT22;42331;53.578;9.760;2023-03-01T01:55:07;-1.20;99.90
56428;DHT22;42331;53.578;9.760;2023-03-01T01:57:42;-1.20;99.90
56428;DHT22;42331;53.578;9.760;2023-03-01T02:00:20;-1.20;99.90
56428;DHT22;42331;53.578;9.760;2023-03-01T02:03:04;-1.20;99.90
56428;DHT22;42331;53.578;9.760;2023-03-01T02:08:12;-1.20;99.90
56428;DHT22;42331;53.578;9.760;2023-03-01T02:10:45;-1.10;99.90
56428;DHT22;42331;53.578;9.760;2023-03-01T02:13:16;-1.20;99.90
56428;DHT22;42331;53.578;9.760;2023-03-01T02:15:47;-1.20;99.90
56428;DHT22;42331;53.578;9.760;2023-03-01T02:18:21;-1.20;99.90
56428;DHT22;42331;53.578;9.760;2023-03-01T02:23:25;-1.10;99.90
56428;DHT22;42331;53.578;9.760;2023-03-01T02:26:19;-1.10;99.90
56428;DHT22;42331;53.578;9.760;2023-03-01T02:28:51;-1.10;99.90
56428;DHT22;42331;53.578;9.760;2023-03-01T02:31:22;-1.20;99.90
56428;DHT22;42331;53.578;9.760;2023-03-01T02:34:17;-1.10;99.90
56428;DHT22;42331;53.578;9.760;2023-03-01T02:36:57;-1.00;99.90
56428;DHT22;42331;53.578;9.760;2023-03-01T02:39:42;-1.00;99.90
56428;DHT22;42331;53.578;9.760;2023-03-01T02:42:17;-1.00;99.90
56428;DHT22;42331;53.578;9.760;2023-03-01T02:44:49;-1.10;99.90
56428;DHT22;42331;53.578;9.760;2023-03-01T02:47:20;-1.10;99.90
56428;DHT22;42331;53.578;9.760;2023-03-01T02:49:51;-1.20;99.90
56428;DHT22;42331;53.578;9.760;2023-03-01T02:52:45;-1.20;99.90
56428;DHT22;42331;53.578;9.760;2023-03-01T02:55:17;-1.20;99.90
56428;DHT22;42331;53.578;9.760;2023-03-01T02:57:49;-1.10;99.90
56428;DHT22;42331;53.578;9.760;2023-03-01T03:00:32;-1.10;99.90
56428;DHT22;42331;53.578;9.760;2023-03-01T03:03:04;-1.20;99.90
56428;DHT22;42331;53.578;9.760;2023-03-01T03:05:35;-1.20;99.90
56428;DHT22;42331;53.578;9.760;2023-03-01T03:08:06;-1.30;99.90
56428;DHT22;42331;53.578;9.760;2023-03-01T03:10:40;-1.40;99.90
56428;DHT22;42331;53.578;9.760;2023-03-01T03:13:13;-1.30;99.90
56428;DHT22;42331;53.578;9.760;2023-03-01T03:15:44;-1.40;99.90
56428;DHT22;42331;53.578;9.760;2023-03-01T03:18:16;-1.40;99.90
56428;DHT22;42331;53.578;9.760;2023-03-01T03:20:47;-1.40;99.90
56428;DHT22;42331;53.578;9.760;2023-03-01T03:23:23;-1.40;99.90
56428;DHT22;42331;53.578;9.760;2023-03-01T03:25:56;-1.30;99.90
56428;DHT22;42331;53.578;9.760;2023-03-01T03:28:27;-1.20;99.90
56428;DHT22;42331;53.578;9.760;2023-03-01T03:30:58;-1.20;99.90
56428;DHT22;42331;53.578;9.760;2023-03-01T03:33:32;-1.10;99.90
56428;DHT22;42331;53.578;9.760;2023-03-01T03:36:06;-1.10;99.90
56428;DHT22;42331;53.578;9.760;2023-03-01T03:38:36;-1.00;99.90
56428;DHT22;42331;53.578;9.760;2023-03-01T03:41:08;-0.90;99.90
56428;DHT22;42331;53.578;9.760;2023-03-01T03:43:40;-0.90;99.90
56428;DHT22;42331;53.578;9.760;2023-03-01T03:46:13;-0.90;99.90
56428;DHT22;42331;53.578;9.760;2023-03-01T03:48:44;-1.00;99.90
56428;DHT22;42331;53.578;9.760;2023-03-01T03:51:17;-0.90;99.90
56428;DHT22;42331;53.578;9.760;2023-03-01T03:53:48;-1.00;99.90
56428;DHT22;42331;53.578;9.760;2023-03-01T03:56:19;-1.00;99.90
56428;DHT22;42331;53.578;9.760;2023-03-01T03:58:49;-1.00;99.90
56428;DHT22;42331;53.578;9.760;2023-03-01T04:01:20;-0.90;99.90
56428;DHT22;42331;53.578;9.760;2023-03-01T04:03:51;-0.90;99.90
56428;DHT22;42331;53.578;9.760;2023-03-01T04:06:24;-0.90;99.90
56428;DHT22;42331;53.578;9.760;2023-03-01T04:08:55;-0.90;99.90
56428;DHT22;42331;53.578;9.760;2023-03-01T04:11:29;-0.90;99.90
56428;DHT22;42331;53.578;9.760;2023-03-01T04:14:00;-0.90;99.90
56428;DHT22;42331;53.578;9.760;2023-03-01T04:16:31;-0.80;99.90
56428;DHT22;42331;53.578;9.760;2023-03-01T04:19:01;-0.90;99.90
56428;DHT22;42331;53.578;9.760;2023-03-01T04:21:33;-0.90;99.90
56428;DHT22;42331;53.578;9.760;2023-03-01T04:24:04;-0.80;99.90
56428;DHT22;42331;53.578;9.760;2023-03-01T04:26:35;-0.80;99.90
56428;DHT22;42331;53.578;9.760;2023-03-01T04:29:05;-0.70;99.90
56428;DHT22;42331;53.578;9.760;2023-03-01T04:31:36;-0.70;99.90
56428;DHT22;42331;53.578;9.760;2023-03-01T04:34:07;-0.60;99.90
56428;DHT22;42331;53.578;9.760;2023-03-01T04:36:37;-0.50;99.90
56428;DHT22;42331;53.578;9.760;2023-03-01T04:39:10;-0.50;99.90
56428;DHT22;42331;53.578;9.760;2023-03-01T04:41:43;-0.40;99.90
56428;DHT22;42331;53.578;9.760;2023-03-01T04:44:14;-0.40;99.90
56428;DHT22;42331;53.578;9.760;2023-03-01T04:46:45;-0.30;99.90
56428;DHT22;42331;53.578;9.760;2023-03-01T04:49:21;-0.20;99.90
56428;DHT22;42331;53.578;9.760;2023-03-01T04:51:52;-0.20;99.90
56428;DHT22;42331;53.578;9.760;2023-03-01T04:54:23;-0.20;99.90
56428;DHT22;42331;53.578;9.760;2023-03-01T04:57:19;-0.20;99.90
56428;DHT22;42331;53.578;9.760;2023-03-01T04:59:50;-0.10;99.90
56428;DHT22;42331;53.578;9.760;2023-03-01T05:02:29;-0.10;99.90
56428;DHT22;42331;53.578;9.760;2023-03-01T05:05:00;0.00;99.90
56428;DHT22;42331;53.578;9.760;2023-03-01T05:07:31;0.00;99.90
56428;DHT22;42331;53.578;9.760;2023-03-01T05:10:01;0.00;99.90
56428;DHT22;42331;53.578;9.760;2023-03-01T05:12:32;0.10;99.90
56428;DHT22;42331;53.578;9.760;2023-03-01T05:15:04;0.20;99.90
56428;DHT22;42331;53.578;9.760;2023-03-01T05:17:39;0.20;99.90
56428;DHT22;42331;53.578;9.760;2023-03-01T05:20:19;0.10;99.90
56428;DHT22;42331;53.578;9.760;2023-03-01T05:22:58;0.20;99.90
56428;DHT22;42331;53.578;9.760;2023-03-01T05:25:34;0.20;99.90
56428;DHT22;42331;53.578;9.760;2023-03-01T05:28:13;0.30;99.90
56428;DHT22;42331;53.578;9.760;2023-03-01T05:30:45;0.30;99.90
56428;DHT22;42331;53.578;9.760;2023-03-01T05:33:16;0.40;99.90
56428;DHT22;42331;53.578;9.760;2023-03-01T05:35:46;0.30;99.90
56428;DHT22;42331;53.578;9.760;2023-03-01T05:38:33;0.30;99.90
56428;DHT22;42331;53.578;9.760;2023-03-01T05:41:14;0.30;99.90
56428;DHT22;42331;53.578;9.760;2023-03-01T05:43:45;0.30;99.90
56428;DHT22;42331;53.578;9.760;2023-03-01T05:46:18;0.30;99.90
56428;DHT22;42331;53.578;9.760;2023-03-01T05:48:49;0.40;99.90
56428;DHT22;42331;53.578;9.760;2023-03-01T05:51:19;0.40;99.90
56428;DHT22;42331;53.578;9.760;2023-03-01T05:53:51;0.50;99.90
56428;DHT22;42331;53.578;9.760;2023-03-01T05:56:22;0.50;99.90
56428;DHT22;42331;53.578;9.760;2023-03-01T05:58:53;0.50;99.90
56428;DHT22;42331;53.578;9.760;2023-03-01T06:01:23;0.50;99.90
56428;DHT22;42331;53.578;9.760;2023-03-01T06:03:54;0.50;99.90
56428;DHT22;42331;53.578;9.760;2023-03-01T06:06:26;0.60;99.90
56428;DHT22;42331;53.578;9.760;2023-03-01T06:08:57;0.60;99.90
56428;DHT22;42331;53.578;9.760;2023-03-01T06:11:30;0.60;99.90
56428;DHT22;42331;53.578;9.760;2023-03-01T06:14:01;0.60;99.90
56428;DHT22;42331;53.578;9.760;2023-03-01T06:16:32;0.60;99.90
56428;DHT22;42331;53.578;9.760;2023-03-01T06:19:03;0.60;99.90
56428;DHT22;42331;53.578;9.760;2023-03-01T06:21:34;0.60;99.90
56428;DHT22;42331;53.578;9.760;2023-03-01T06:24:12;0.70;99.90
56428;DHT22;42331;53.578;9.760;2023-03-01T06:26:43;0.60;99.90
56428;DHT22;42331;53.578;9.760;2023-03-01T06:29:13;0.60;99.90
56428;DHT22;42331;53.578;9.760;2023-03-01T06:31:45;0.70;99.90
56428;DHT22;42331;53.578;9.760;2023-03-01T06:34:16;0.70;99.90
56428;DHT22;42331;53.578;9.760;2023-03-01T06:36:47;0.70;99.90
56428;DHT22;42331;53.578;9.760;2023-03-01T06:39:18;0.70;99.90
56428;DHT22;42331;53.578;9.760;2023-03-01T06:41:48;0.70;99.90
56428;DHT22;42331;53.578;9.760;2023-03-01T06:44:19;0.70;99.90
56428;DHT22;42331;53.578;9.760;2023-03-01T06:46:50;0.70;99.90
56428;DHT22;42331;53.578;9.760;2023-03-01T06:49:20;0.80;99.90
56428;DHT22;42331;53.578;9.760;2023-03-01T06:51:57;0.80;99.90
56428;DHT22;42331;53.578;9.760;2023-03-01T06:54:28;0.90;99.90
56428;DHT22;42331;53.578;9.760;2023-03-01T06:56:59;1.00;99.90
56428;DHT22;42331;53.578;9.760;2023-03-01T06:59:30;1.00;99.90
56428;DHT22;42331;53.578;9.760;2023-03-01T07:02:00;1.10;99.90
56428;DHT22;42331;53.578;9.760;2023-03-01T07:04:32;1.10;99.90
56428;DHT22;42331;53.578;9.760;2023-03-01T07:07:02;1.20;99.90
56428;DHT22;42331;53.578;9.760;2023-03-01T07:09:33;1.30;99.90
56428;DHT22;42331;53.578;9.760;2023-03-01T07:12:04;1.30;99.90
56428;DHT22;42331;53.578;9.760;2023-03-01T07:14:35;1.30;99.90
56428;DHT22;42331;53.578;9.760;2023-03-01T07:17:06;1.40;99.90
56428;DHT22;42331;53.578;9.760;2023-03-01T07:19:37;1.50;99.90
56428;DHT22;42331;53.578;9.760;2023-03-01T07:22:07;1.50;99.90
56428;DHT22;42331;53.578;9.760;2023-03-01T07:24:41;1.50;99.90
56428;DHT22;42331;53.578;9.760;2023-03-01T07:27:12;1.60;99.90
56428;DHT22;42331;53.578;9.760;2023-03-01T07:29:42;1.80;99.90
56428;DHT22;42331;53.578;9.760;2023-03-01T07:32:13;1.90;99.90
56428;DHT22;42331;53.578;9.760;2023-03-01T07:34:44;1.90;99.90
56428;DHT22;42331;53.578;9.760;2023-03-01T07:37:15;1.90;99.90
56428;DHT22;42331;53.578;9.760;2023-03-01T07:39:45;2.00;99.90
56428;DHT22;42331;53.578;9.760;2023-03-01T07:42:16;2.20;99.90
56428;DHT22;42331;53.578;9.760;2023-03-01T07:44:47;2.20;99.90
56428;DHT22;42331;53.578;9.760;2023-03-01T07:47:18;2.20;99.90
56428;DHT22;42331;53.578;9.760;2023-03-01T07:49:49;2.20;99.90
56428;DHT22;42331;53.578;9.760;2023-03-01T07:52:19;2.10;99.90
56428;DHT22;42331;53.578;9.760;2023-03-01T07:54:50;2.00;99.90
56428;DHT22;42331;53.578;9.760;2023-03-01T07:57:21;2.10;99.90
56428;DHT22;42331;53.578;9.760;2023-03-01T07:59:51;2.10;99.90
56428;DHT22;42331;53.578;9.760;2023-03-01T08:02:22;2.30;99.90
56428;DHT22;42331;53.578;9.760;2023-03-01T08:04:53;2.20;99.90
56428;DHT22;42331;53.578;9.760;2023-03-01T08:07:24;2.20;99.90
56428;DHT22;42331;53.578;9.760;2023-03-01T08:09:55;2.30;99.90
56428;DHT22;42331;53.578;9.760;2023-03-01T08:12:25;2.20;99.90
56428;DHT22;42331;53.578;9.760;2023-03-01T08:14:58;2.00;99.90
56428;DHT22;42331;53.578;9.760;2023-03-01T08:17:29;2.10;99.90
56428;DHT22;42331;53.578;9.760;2023-03-01T08:20:00;2.10;99.90
56428;DHT22;42331;53.578;9.760;2023-03-01T08:22:30;2.20;99.90
56428;DHT22;42331;53.578;9.760;2023-03-01T08:25:01;2.30;99.90
56428;DHT22;42331;53.578;9.760;2023-03-01T08:27:33;2.40;99.90
56428;DHT22;42331;53.578;9.760;2023-03-01T08:30:04;2.30;99.90
56428;DHT22;42331;53.578;9.760;2023-03-01T08:32:37;2.40;99.90
56428;DHT22;42331;53.578;9.760;2023-03-01T08:35:08;2.60;99.90
56428;DHT22;42331;53.578;9.760;2023-03-01T08:37:39;2.70;99.90
56428;DHT22;42331;53.578;9.760;2023-03-01T08:40:10;2.90;99.90
56428;DHT22;42331;53.578;9.760;2023-03-01T08:42:42;3.10;99.90
56428;DHT22;42331;53.578;9.760;2023-03-01T08:45:18;3.20;99.90
56428;DHT22;42331;53.578;9.760;2023-03-01T08:47:52;3.30;99.90
56428;DHT22;42331;53.578;9.760;2023-03-01T08:50:23;3.50;99.90
56428;DHT22;42331;53.578;9.760;2023-03-01T08:52:54;3.50;99.90
56428;DHT22;42331;53.578;9.760;2023-03-01T08:55:25;3.50;99.90
56428;DHT22;42331;53.578;9.760;2023-03-01T08:57:56;3.60;99.90
56428;DHT22;42331;53.578;9.760;2023-03-01T09:00:29;3.80;99.90
56428;DHT22;42331;53.578;9.760;2023-03-01T09:03:00;3.90;99.90
56428;DHT22;42331;53.578;9.760;2023-03-01T09:05:32;3.90;99.90
56428;DHT22;42331;53.578;9.760;2023-03-01T09:08:04;4.00;99.90
56428;DHT22;42331;53.578;9.760;2023-03-01T09:10:37;4.10;99.90
56428;DHT22;42331;53.578;9.760;2023-03-01T09:13:09;4.00;99.90
56428;DHT22;42331;53.578;9.760;2023-03-01T09:15:42;4.10;99.90
56428;DHT22;42331;53.578;9.760;2023-03-01T09:18:13;4.40;99.90
56428;DHT22;42331;53.578;9.760;2023-03-01T09:20:44;4.40;99.90
56428;DHT22;42331;53.578;9.760;2023-03-01T09:23:14;4.40;99.90
56428;DHT22;42331;53.578;9.760;2023-03-01T09:25:45;4.40;99.90
56428;DHT22;42331;53.578;9.760;2023-03-01T09:28:16;4.30;99.90
56428;DHT22;42331;53.578;9.760;2023-03-01T09:30:47;4.40;99.90
56428;DHT22;42331;53.578;9.760;2023-03-01T09:33:17;4.20;99.90
56428;DHT22;42331;53.578;9.760;2023-03-01T09:35:48;4.30;99.90
56428;DHT22;42331;53.578;9.760;2023-03-01T09:38:19;4.20;99.90
56428;DHT22;42331;53.578;9.760;2023-03-01T09:40:49;4.10;99.90
56428;DHT22;42331;53.578;9.760;2023-03-01T09:43:30;4.40;99.90
56428;DHT22;42331;53.578;9.760;2023-03-01T09:46:05;4.30;99.90
56428;DHT22;42331;53.578;9.760;2023-03-01T09:48:44;4.30;99.90
56428;DHT22;42331;53.578;9.760;2023-03-01T09:51:26;4.10;99.90
56428;DHT22;42331;53.578;9.760;2023-03-01T09:53:58;4.10;99.90
56428;DHT22;42331;53.578;9.760;2023-03-01T10:04:49;3.80;99.90
56428;DHT22;42331;53.578;9.760;2023-03-01T10:07:47;4.30;99.90
56428;DHT22;42331;53.578;9.760;2023-03-01T10:10:36;4.60;99.90
56428;DHT22;42331;53.578;9.760;2023-03-01T10:13:21;4.90;99.90
56428;DHT22;42331;53.578;9.760;2023-03-01T10:16:10;4.70;99.90
56428;DHT22;42331;53.578;9.760;2023-03-01T10:18:45;4.80;99.90
56428;DHT22;42331;53.578;9.760;2023-03-01T10:21:19;4.70;99.90
56428;DHT22;42331;53.578;9.760;2023-03-01T10:23:51;4.80;99.90
56428;DHT22;42331;53.578;9.760;2023-03-01T10:29:10;5.10;99.90
56428;DHT22;42331;53.578;9.760;2023-03-01T10:31:44;5.50;99.90
56428;DHT22;42331;53.578;9.760;2023-03-01T10:34:22;5.80;99.90
56428;DHT22;42331;53.578;9.760;2023-03-01T10:36:57;6.50;99.90
56428;DHT22;42331;53.578;9.760;2023-03-01T10:39:28;7.60;99.90
56428;DHT22;42331;53.578;9.760;2023-03-01T10:42:02;7.80;99.90
56428;DHT22;42331;53.578;9.760;2023-03-01T10:44:47;8.30;99.90
56428;DHT22;42331;53.578;9.760;2023-03-01T10:47:27;7.90;99.90
56428;DHT22;42331;53.578;9.760;2023-03-01T10:50:04;7.60;99.90
56428;DHT22;42331;53.578;9.760;2023-03-01T10:52:37;8.10;99.90
56428;DHT22;42331;53.578;9.760;2023-03-01T11:00:55;7.50;99.90
56428;DHT22;42331;53.578;9.760;2023-03-01T11:03:28;7.70;99.90
56428;DHT22;42331;53.578;9.760;2023-03-01T11:08:46;7.90;99.90
56428;DHT22;42331;53.578;9.760;2023-03-01T11:16:47;7.20;99.90
56428;DHT22;42331;53.578;9.760;2023-03-01T11:19:21;7.40;99.90
56428;DHT22;42331;53.578;9.760;2023-03-01T11:21:54;7.40;99.90
56428;DHT22;42331;53.578;9.760;2023-03-01T11:24:38;7.60;99.90
56428;DHT22;42331;53.578;9.760;2023-03-01T11:27:21;7.60;99.90
56428;DHT22;42331;53.578;9.760;2023-03-01T11:38:55;5.60;99.90
56428;DHT22;42331;53.578;9.760;2023-03-01T11:41:31;5.80;99.90
56428;DHT22;42331;53.578;9.760;2023-03-01T11:44:20;5.50;99.90
56428;DHT22;42331;53.578;9.760;2023-03-01T11:50:04;5.30;99.90
56428;DHT22;42331;53.578;9.760;2023-03-01T11:52:45;5.20;99.90
56428;DHT22;42331;53.578;9.760;2023-03-01T12:02:22;5.10;99.90
56428;DHT22;42331;53.578;9.760;2023-03-01T12:17:02;5.30;99.90
56428;DHT22;42331;53.578;9.760;2023-03-01T12:25:25;5.30;99.90
56428;DHT22;42331;53.578;9.760;2023-03-01T12:39:47;5.70;99.90
56428;DHT22;42331;53.578;9.760;2023-03-01T12:48:24;5.90;99.90
56428;DHT22;42331;53.578;9.760;2023-03-01T12:51:02;5.80;99.90
56428;DHT22;42331;53.578;9.760;2023-03-01T12:53:42;5.80;99.90
56428;DHT22;42331;53.578;9.760;2023-03-01T12:56:27;5.90;99.90
56428;DHT22;42331;53.578;9.760;2023-03-01T13:05:00;5.90;99.90
56428;DHT22;42331;53.578;9.760;2023-03-01T13:07:49;6.10;99.90
56428;DHT22;42331;53.578;9.760;2023-03-01T13:10:46;6.10;99.90
56428;DHT22;42331;53.578;9.760;2023-03-01T13:13:26;6.00;99.90
56428;DHT22;42331;53.578;9.760;2023-03-01T13:16:39;5.90;99.90
56428;DHT22;42331;53.578;9.760;2023-03-01T13:19:26;5.80;99.90
56428;DHT22;42331;53.578;9.760;2023-03-01T13:25:28;5.90;99.90
56428;DHT22;42331;53.578;9.760;2023-03-01T13:31:06;5.90;99.90
56428;DHT22;42331;53.578;9.760;2023-03-01T13:33:41;6.00;99.90
56428;DHT22;42331;53.578;9.760;2023-03-01T13:39:13;5.80;99.90
56428;DHT22;42331;53.578;9.760;2023-03-01T13:41:59;5.90;99.90
56428;DHT22;42331;53.578;9.760;2023-03-01T13:44:37;5.90;99.90
56428;DHT22;42331;53.578;9.760;2023-03-01T13:47:17;5.80;99.90
56428;DHT22;42331;53.578;9.760;2023-03-01T13:49:57;5.80;99.90
56428;DHT22;42331;53.578;9.760;2023-03-01T13:55:44;5.80;99.90
56428;DHT22;42331;53.578;9.760;2023-03-01T13:58:30;5.80;99.90
56428;DHT22;42331;53.578;9.760;2023-03-01T14:01:18;5.80;99.90
56428;DHT22;42331;53.578;9.760;2023-03-01T14:03:53;5.80;99.90
56428;DHT22;42331;53.578;9.760;2023-03-01T14:06:29;5.80;99.90
56428;DHT22;42331;53.578;9.760;2023-03-01T14:09:19;5.90;99.90
56428;DHT22;42331;53.578;9.760;2023-03-01T14:17:42;5.90;99.90
56428;DHT22;42331;53.578;9.760;2023-03-01T14:20:22;6.00;99.90
56428;DHT22;42331;53.578;9.760;2023-03-01T14:22:56;5.90;99.90
56428;DHT22;42331;53.578;9.760;2023-03-01T14:25:33;5.90;99.90
56428;DHT22;42331;53.578;9.760;2023-03-01T14:28:26;5.90;99.90
56428;DHT22;42331;53.578;9.760;2023-03-01T14:33:55;5.90;99.90
56428;DHT22;42331;53.578;9.760;2023-03-01T14:36:34;6.00;99.90
56428;DHT22;42331;53.578;9.760;2023-03-01T14:39:24;6.00;99.90
56428;DHT22;42331;53.578;9.760;2023-03-01T14:41:59;6.00;99.90
56428;DHT22;42331;53.578;9.760;2023-03-01T14:44:40;6.00;99.90
56428;DHT22;42331;53.578;9.760;2023-03-01T14:47:19;6.00;99.90
56428;DHT22;42331;53.578;9.760;2023-03-01T14:50:04;5.90;99.90
56428;DHT22;42331;53.578;9.760;2023-03-01T14:52:39;5.90;99.90
56428;DHT22;42331;53.578;9.760;2023-03-01T14:55:19;5.90;99.90
56428;DHT22;42331;53.578;9.760;2023-03-01T14:57:56;5.90;99.90
56428;DHT22;42331;53.578;9.760;2023-03-01T15:00:35;5.80;99.90
56428;DHT22;42331;53.578;9.760;2023-03-01T15:03:12;5.90;99.90
56428;DHT22;42331;53.578;9.760;2023-03-01T15:05:47;5.90;99.90
56428;DHT22;42331;53.578;9.760;2023-03-01T15:08:21;6.00;99.90
56428;DHT22;42331;53.578;9.760;2023-03-01T15:13:44;5.90;99.90
56428;DHT22;42331;53.578;9.760;2023-03-01T15:16:39;6.00;99.90
56428;DHT22;42331;53.578;9.760;2023-03-01T15:19:16;6.00;99.90
56428;DHT22;42331;53.578;9.760;2023-03-01T15:21:49;5.90;99.90
56428;DHT22;42331;53.578;9.760;2023-03-01T15:24:24;5.90;99.90
56428;DHT22;42331;53.578;9.760;2023-03-01T15:27:00;5.90;99.90
56428;DHT22;42331;53.578;9.760;2023-03-01T15:29:37;5.80;99.90
56428;DHT22;42331;53.578;9.760;2023-03-01T15:32:32;5.80;99.90
56428;DHT22;42331;53.578;9.760;2023-03-01T15:35:41;5.90;99.90
56428;DHT22;42331;53.578;9.760;2023-03-01T15:38:35;5.80;99.90
56428;DHT22;42331;53.578;9.760;2023-03-01T15:41:37;5.80;99.90
56428;DHT22;42331;53.578;9.760;2023-03-01T15:44:16;5.80;99.90
56428;DHT22;42331;53.578;9.760;2023-03-01T15:46:48;5.80;99.90
56428;DHT22;42331;53.578;9.760;2023-03-01T15:52:17;5.70;99.90
56428;DHT22;42331;53.578;9.760;2023-03-01T15:54:49;5.60;99.90
56428;DHT22;42331;53.578;9.760;2023-03-01T15:57:20;5.60;99.90
56428;DHT22;42331;53.578;9.760;2023-03-01T15:59:51;5.50;99.90
56428;DHT22;42331;53.578;9.760;2023-03-01T16:02:23;5.50;99.90
56428;DHT22;42331;53.578;9.760;2023-03-01T16:04:54;5.60;99.90
56428;DHT22;42331;53.578;9.760;2023-03-01T16:07:26;5.50;99.90
56428;DHT22;42331;53.578;9.760;2023-03-01T16:09:58;5.50;99.90
56428;DHT22;42331;53.578;9.760;2023-03-01T16:12:29;5.40;99.90
56428;DHT22;42331;53.578;9.760;2023-03-01T16:14:59;5.40;99.90
56428;DHT22;42331;53.578;9.760;2023-03-01T16:17:30;5.40;99.90
56428;DHT22;42331;53.578;9.760;2023-03-01T16:20:01;5.20;99.90
56428;DHT22;42331;53.578;9.760;2023-03-01T16:22:31;5.30;99.90
56428;DHT22;42331;53.578;9.760;2023-03-01T16:25:02;5.20;99.90
56428;DHT22;42331;53.578;9.760;2023-03-01T16:27:33;5.10;99.90
56428;DHT22;42331;53.578;9.760;2023-03-01T16:30:05;5.00;99.90
56428;DHT22;42331;53.578;9.760;2023-03-01T16:32:40;5.00;99.90
56428;DHT22;42331;53.578;9.760;2023-03-01T16:35:13;4.90;99.90
56428;DHT22;42331;53.578;9.760;2023-03-01T16:37:44;4.80;99.90
56428;DHT22;42331;53.578;9.760;2023-03-01T16:40:23;4.80;99.90
56428;DHT22;42331;53.578;9.760;2023-03-01T16:42:56;4.70;99.90
56428;DHT22;42331;53.578;9.760;2023-03-01T16:45:34;4.70;99.90
56428;DHT22;42331;53.578;9.760;2023-03-01T16:48:07;4.70;99.90
56428;DHT22;42331;53.578;9.760;2023-03-01T16:50:37;4.60;99.90
56428;DHT22;42331;53.578;9.760;2023-03-01T16:53:08;4.60;99.90
56428;DHT22;42331;53.578;9.760;2023-03-01T16:55:39;4.50;99.90
56428;DHT22;42331;53.578;9.760;2023-03-01T16:58:15;4.40;99.90
56428;DHT22;42331;53.578;9.760;2023-03-01T17:00:47;4.30;99.90
56428;DHT22;42331;53.578;9.760;2023-03-01T17:03:17;4.20;99.90
56428;DHT22;42331;53.578;9.760;2023-03-01T17:05:48;4.20;99.90
56428;DHT22;42331;53.578;9.760;2023-03-01T17:08:19;4.10;99.90
56428;DHT22;42331;53.578;9.760;2023-03-01T17:10:50;4.10;99.90
56428;DHT22;42331;53.578;9.760;2023-03-01T17:13:23;4.10;99.90
56428;DHT22;42331;53.578;9.760;2023-03-01T17:15:54;4.00;99.90
56428;DHT22;42331;53.578;9.760;2023-03-01T17:18:25;4.00;99.90
56428;DHT22;42331;53.578;9.760;2023-03-01T17:26:09;3.80;99.90
56428;DHT22;42331;53.578;9.760;2023-03-01T17:28:40;3.70;99.90
56428;DHT22;42331;53.578;9.760;2023-03-01T17:31:13;3.60;99.90
56428;DHT22;42331;53.578;9.760;2023-03-01T17:33:43;3.60;99.90
56428;DHT22;42331;53.578;9.760;2023-03-01T17:36:15;3.50;99.90
56428;DHT22;42331;53.578;9.760;2023-03-01T17:38:46;3.40;99.90
56428;DHT22;42331;53.578;9.760;2023-03-01T17:41:17;3.30;99.90
56428;DHT22;42331;53.578;9.760;2023-03-01T17:43:48;3.30;99.90
56428;DHT22;42331;53.578;9.760;2023-03-01T17:46:19;3.20;99.90
56428;DHT22;42331;53.578;9.760;2023-03-01T17:48:50;3.20;99.90
56428;DHT22;42331;53.578;9.760;2023-03-01T17:51:20;3.10;99.90
56428;DHT22;42331;53.578;9.760;2023-03-01T17:53:51;3.10;99.90
56428;DHT22;42331;53.578;9.760;2023-03-01T17:56:22;3.00;99.90
56428;DHT22;42331;53.578;9.760;2023-03-01T17:58:53;3.00;99.90
56428;DHT22;42331;53.578;9.760;2023-03-01T18:01:24;3.00;99.90
56428;DHT22;42331;53.578;9.760;2023-03-01T18:03:55;3.10;99.90
56428;DHT22;42331;53.578;9.760;2023-03-01T18:06:27;3.00;99.90
56428;DHT22;42331;53.578;9.760;2023-03-01T18:08:59;2.90;99.90
56428;DHT22;42331;53.578;9.760;2023-03-01T18:11:32;2.90;99.90
56428;DHT22;42331;53.578;9.760;2023-03-01T18:14:04;2.90;99.90
56428;DHT22;42331;53.578;9.760;2023-03-01T18:16:35;2.90;99.90
56428;DHT22;42331;53.578;9.760;2023-03-01T18:19:06;2.90;99.90
56428;DHT22;42331;53.578;9.760;2023-03-01T18:21:37;2.90;99.90
56428;DHT22;42331;53.578;9.760;2023-03-01T18:24:08;2.80;99.90
56428;DHT22;42331;53.578;9.760;2023-03-01T18:26:38;2.80;99.90
56428;DHT22;42331;53.578;9.760;2023-03-01T18:29:09;2.80;99.90
56428;DHT22;42331;53.578;9.760;2023-03-01T18:31:40;2.90;99.90
56428;DHT22;42331;53.578;9.760;2023-03-01T18:34:11;2.90;99.90